Time;durP1;ratioP1;P1;durP2;ratioP2;P2;SDS_P1;SDS_P2;PMS_P1;PMS_P2;Temp;Humidity;BMP_temperature;BMP_pressure;BME280_temperature;BME280_humidity;BME280_pressure;Samples;Min_cycle;Max_cycle;Signal;HPM_P1;HPM_P2
2021/10/11 00:00:29;;;;;;;22.67;12.68;;;;;;;5.52;54.99;101169.16;5050736;28;20036;-62
2021/10/11 00:02:55;;;;;;;23.48;11.88;;;;;;;5.41;55.38;101158.94;5034179;28;20029;-62
2021/10/11 00:05:21;;;;;;;24.58;12.02;;;;;;;5.50;56.01;101175.47;5049807;28;20025;-61
2021/10/11 00:07:47;;;;;;;22.58;12.10;;;;;;;5.44;55.74;101172.13;5050070;28;20024;-62
2021/10/11 00:10:19;;;;;;;22.15;12.32;;;;;;;5.46;56.16;101177.34;5051666;28;20041;-61
2021/10/11 00:12:49;;;;;;;23.73;12.13;;;;;;;5.40;55.63;101166.97;5050782;28;20048;-62
2021/10/11 00:15:19;;;;;;;25.58;12.43;;;;;;;5.46;55.42;101172.03;5050110;28;20121;-60
2021/10/11 00:17:46;;;;;;;25.08;12.63;;;;;;;5.41;55.28;101168.69;5051152;28;20068;-62
2021/10/11 00:20:13;;;;;;;23.45;12.43;;;;;;;5.39;56.13;101168.75;5051201;28;20029;-61
2021/10/11 00:22:39;;;;;;;22.60;12.18;;;;;;;5.29;56.27;101152.28;5051045;28;20076;-62
2021/10/11 00:25:05;;;;;;;23.95;11.98;;;;;;;5.34;55.67;101162.75;5050853;28;20029;-61
2021/10/11 00:27:31;;;;;;;23.95;11.85;;;;;;;5.10;55.60;101116.75;5051091;28;20029;-61
2021/10/11 00:29:58;;;;;;;25.48;11.93;;;;;;;5.16;55.96;101132.44;5051150;28;20040;-61
2021/10/11 00:32:23;;;;;;;20.20;11.80;;;;;;;5.26;55.66;101149.75;5049857;28;20437;-62
2021/10/11 00:34:49;;;;;;;23.58;12.30;;;;;;;5.27;55.85;101159.44;5049363;28;20036;-60
2021/10/11 00:37:15;;;;;;;18.92;11.40;;;;;;;5.21;55.72;101154.38;5050866;28;20033;-62
2021/10/11 00:39:40;;;;;;;22.00;12.05;;;;;;;5.24;55.96;101151.59;5050620;28;20029;-62
2021/10/11 00:42:06;;;;;;;22.42;11.48;;;;;;;5.19;56.01;101152.72;5048531;28;20031;-61
2021/10/11 00:44:31;;;;;;;21.92;11.93;;;;;;;5.21;55.38;101156.19;5051245;28;20461;-61
2021/10/11 00:46:57;;;;;;;22.85;12.32;;;;;;;5.18;56.00;101146.53;5033637;28;20025;-61
2021/10/11 00:49:23;;;;;;;23.98;12.40;;;;;;;5.16;55.78;101153.69;5049805;28;20137;-62
2021/10/11 00:51:48;;;;;;;24.88;12.25;;;;;;;5.14;56.20;101151.06;5050646;28;20025;-61
2021/10/11 00:54:14;;;;;;;24.25;12.25;;;;;;;5.08;55.81;101145.13;5050964;28;20041;-63
2021/10/11 00:56:40;;;;;;;22.17;11.95;;;;;;;5.09;55.93;101150.38;5049070;28;20518;-62
2021/10/11 00:59:05;;;;;;;26.13;12.20;;;;;;;5.08;56.14;101140.69;5050184;28;20025;-61
2021/10/11 01:01:31;;;;;;;26.33;12.55;;;;;;;5.10;56.53;101151.25;5049580;28;20033;-62
2021/10/11 01:03:58;;;;;;;27.00;12.50;;;;;;;5.08;56.23;101151.31;5048873;28;20021;-62
2021/10/11 01:06:24;;;;;;;28.08;12.50;;;;;;;5.00;57.04;101137.44;5050627;28;20445;-62
2021/10/11 01:08:50;;;;;;;31.13;13.20;;;;;;;5.00;56.73;101146.25;5050116;28;20103;-61
2021/10/11 01:11:15;;;;;;;28.88;12.95;;;;;;;4.99;56.45;101141.03;5050510;28;20563;-62
2021/10/11 01:13:41;;;;;;;21.48;12.68;;;;;;;4.93;56.65;101136.78;5049061;28;20041;-62
2021/10/11 01:16:06;;;;;;;23.48;12.40;;;;;;;4.97;57.02;101148.19;5050868;28;20120;-59
2021/10/11 01:18:32;;;;;;;22.98;12.18;;;;;;;4.93;57.12;101147.41;5051163;28;20025;-62
2021/10/11 01:20:57;;;;;;;27.92;13.30;;;;;;;4.91;57.36;101141.28;5015302;28;20047;-61
2021/10/11 01:23:25;;;;;;;24.65;12.60;;;;;;;4.84;57.05;101129.19;5050052;28;20041;-63
2021/10/11 01:25:52;;;;;;;21.83;11.63;;;;;;;4.86;57.39;101144.09;5050540;28;20459;-62
2021/10/11 01:28:18;;;;;;;27.08;12.95;;;;;;;4.77;57.54;101135.59;5050613;28;20025;-61
2021/10/11 01:30:44;;;;;;;22.88;12.43;;;;;;;4.80;57.37;101141.69;5050261;28;20037;-61
2021/10/11 01:33:09;;;;;;;24.75;13.25;;;;;;;4.79;57.98;101144.38;5048855;28;20105;-61
2021/10/11 01:35:36;;;;;;;25.73;13.02;;;;;;;4.70;57.58;101132.28;5050816;28;20044;-61
2021/10/11 01:38:01;;;;;;;23.35;12.68;;;;;;;4.66;58.11;101128.91;5051018;28;20033;-62
2021/10/11 01:40:26;;;;;;;25.27;13.15;;;;;;;4.72;57.52;101139.28;5049726;28;20025;-61
2021/10/11 01:42:52;;;;;;;24.95;12.75;;;;;;;4.67;57.79;101127.09;5048306;28;20041;-61
2021/10/11 01:45:18;;;;;;;28.50;13.00;;;;;;;4.69;57.65;101144.72;5050214;28;20033;-61
2021/10/11 01:47:44;;;;;;;23.80;12.48;;;;;;;4.43;57.58;101092.56;5040910;28;20057;-62
2021/10/11 01:50:10;;;;;;;21.65;11.75;;;;;;;4.42;57.75;101097.00;5045006;28;20474;-60
2021/10/11 01:52:36;;;;;;;26.58;13.07;;;;;;;4.58;58.10;101118.56;5030789;28;20025;-60
2021/10/11 01:55:05;;;;;;;25.70;12.23;;;;;;;4.63;58.03;101131.66;5029528;28;20113;-61
2021/10/11 01:57:31;;;;;;;26.45;12.38;;;;;;;4.58;58.02;101120.31;5036038;28;20037;-61
2021/10/11 01:59:56;;;;;;;25.25;12.63;;;;;;;4.57;58.01;101124.78;5068176;28;20417;-61
2021/10/11 02:02:22;;;;;;;23.58;12.95;;;;;;;4.57;57.91;101123.91;5065991;28;20437;-61
2021/10/11 02:04:47;;;;;;;24.10;12.27;;;;;;;4.53;57.92;101111.66;5068096;28;20115;-62
2021/10/11 02:07:13;;;;;;;20.30;11.55;;;;;;;4.52;58.43;101113.47;5038165;28;20057;-61
2021/10/11 02:09:38;;;;;;;23.45;11.77;;;;;;;4.51;57.80;101113.50;5026499;28;20091;-62
2021/10/11 02:12:04;;;;;;;24.05;12.02;;;;;;;4.49;58.20;101107.38;5026313;28;20060;-61
2021/10/11 02:14:29;;;;;;;24.20;12.15;;;;;;;4.21;58.37;101063.28;5028741;28;20086;-62
2021/10/11 02:16:56;;;;;;;25.95;12.23;;;;;;;4.43;57.78;101104.03;5029595;28;20033;-62
2021/10/11 02:19:22;;;;;;;24.77;12.75;;;;;;;4.39;58.07;101109.50;5028742;28;20445;-61
2021/10/11 02:21:47;;;;;;;22.42;12.45;;;;;;;4.39;58.61;101105.06;5030322;28;20043;-62
2021/10/11 02:24:13;;;;;;;26.38;12.25;;;;;;;4.33;58.64;101099.94;5031798;28;20045;-61
2021/10/11 02:26:39;;;;;;;26.48;12.88;;;;;;;4.35;58.43;101102.56;5032166;28;20473;-61
2021/10/11 02:29:04;;;;;;;26.33;12.68;;;;;;;4.37;58.68;101106.91;5033588;28;20026;-61
2021/10/11 02:31:30;;;;;;;25.30;13.30;;;;;;;4.32;58.96;101092.91;5033475;28;20523;-62
2021/10/11 02:33:55;;;;;;;26.05;13.07;;;;;;;4.34;59.15;101101.72;5031859;28;20034;-61
2021/10/11 02:36:21;;;;;;;23.30;13.07;;;;;;;4.33;58.73;101104.41;5033081;28;20377;-61
2021/10/11 02:38:46;;;;;;;27.13;13.43;;;;;;;4.28;58.76;101102.78;5033584;28;20108;-60
2021/10/11 02:41:12;;;;;;;27.33;13.30;;;;;;;4.07;59.09;101059.28;5033318;28;20029;-60
2021/10/11 02:43:37;;;;;;;25.77;12.57;;;;;;;4.27;59.42;101095.75;5031474;28;20059;-61
2021/10/11 02:46:03;;;;;;;25.27;13.10;;;;;;;4.27;59.01;101100.16;5033019;28;20052;-57
2021/10/11 02:48:28;;;;;;;28.33;12.30;;;;;;;4.22;59.35;101092.38;5033861;28;20068;-62
2021/10/11 02:50:54;;;;;;;27.60;12.85;;;;;;;4.18;59.05;101087.22;5032823;28;20037;-63
2021/10/11 02:53:20;;;;;;;21.10;12.02;;;;;;;4.21;59.14;101095.94;5031271;28;20033;-61
2021/10/11 02:55:45;;;;;;;29.35;13.00;;;;;;;4.09;59.54;101076.00;5033359;28;20032;-62
2021/10/11 02:58:10;;;;;;;25.10;12.63;;;;;;;4.19;59.23;101089.81;5031830;28;20025;-61
2021/10/11 03:00:36;;;;;;;29.33;13.43;;;;;;;4.17;58.86;101089.00;5032602;28;20038;-62
2021/10/11 03:03:01;;;;;;;24.73;12.63;;;;;;;4.12;59.26;101081.22;5033286;28;20353;-62
2021/10/11 03:05:27;;;;;;;25.90;13.05;;;;;;;4.07;59.11;101077.00;5031555;28;20044;-61
2021/10/11 03:07:52;;;;;;;26.02;13.15;;;;;;;4.12;59.17;101081.22;5032497;28;20052;-61
2021/10/11 03:10:18;;;;;;;25.80;13.10;;;;;;;4.08;59.51;101076.91;5032208;28;20080;-62
2021/10/11 03:12:43;;;;;;;25.90;12.98;;;;;;;4.07;59.55;101072.53;5031854;28;20366;-62
2021/10/11 03:15:09;;;;;;;28.45;13.40;;;;;;;4.05;59.43;101079.69;5068053;28;20104;-62
2021/10/11 03:17:35;;;;;;;29.67;13.60;;;;;;;4.05;59.58;101078.81;5052265;28;20524;-62
2021/10/11 03:20:00;;;;;;;21.77;12.55;;;;;;;4.03;60.13;101073.56;5029615;28;20124;-62
2021/10/11 03:22:27;;;;;;;23.83;12.70;;;;;;;4.03;59.82;101070.91;5029361;28;20037;-60
2021/10/11 03:24:53;;;;;;;24.88;11.98;;;;;;;3.98;59.53;101075.50;5031038;28;20049;-61
2021/10/11 03:27:18;;;;;;;27.05;13.40;;;;;;;3.76;60.48;101031.16;5029918;28;20031;-61
2021/10/11 03:29:44;;;;;;;28.30;12.95;;;;;;;3.96;60.40;101070.25;5028452;28;20026;-61
2021/10/11 03:32:09;;;;;;;29.17;12.80;;;;;;;3.93;60.47;101066.84;5031271;28;20037;-62
2021/10/11 03:34:35;;;;;;;26.73;12.85;;;;;;;3.85;60.16;101052.03;5031222;28;20032;-63
2021/10/11 03:37:00;;;;;;;24.30;12.30;;;;;;;3.95;60.46;101075.59;5032600;28;20029;-61
2021/10/11 03:39:26;;;;;;;23.52;12.63;;;;;;;3.95;59.85;101071.16;5031038;28;20081;-61
2021/10/11 03:41:51;;;;;;;29.70;12.88;;;;;;;3.96;60.76;101070.25;5032137;28;20121;-62
2021/10/11 03:44:17;;;;;;;29.50;12.85;;;;;;;3.94;60.27;101064.13;5032101;28;20393;-62
2021/10/11 03:46:42;;;;;;;28.00;12.82;;;;;;;3.69;60.06;101019.06;5031558;28;20029;-61
2021/10/11 03:49:08;;;;;;;27.83;13.90;;;;;;;3.94;60.03;101056.19;5024327;28;20052;-60
2021/10/11 03:51:33;;;;;;;28.90;13.90;;;;;;;3.97;60.22;101061.38;5032130;28;20032;-58
2021/10/11 03:53:59;;;;;;;29.35;13.88;;;;;;;3.98;60.54;101062.25;5032484;28;20022;-62
2021/10/11 03:56:27;;;;;;;26.95;12.63;;;;;;;3.98;60.18;101067.56;5031568;28;20458;-62
2021/10/11 03:58:52;;;;;;;24.45;13.30;;;;;;;3.94;60.47;101055.34;5031832;28;20065;-62
2021/10/11 04:01:18;;;;;;;29.80;14.27;;;;;;;4.01;60.51;101065.69;5031743;28;20130;-62
2021/10/11 04:03:43;;;;;;;28.90;13.18;;;;;;;4.05;60.28;101071.72;5031552;28;20037;-60
2021/10/11 04:06:09;;;;;;;31.90;13.35;;;;;;;4.08;60.19;101071.63;5031044;28;20029;-61
2021/10/11 04:08:40;;;;;;;33.45;13.75;;;;;;;4.11;59.61;101070.66;5031381;28;20033;-61
2021/10/11 04:13:33;;;;;;;31.95;14.27;;;;;;;3.83;59.38;101014.16;5031607;28;20029;-59
2021/10/11 04:15:59;;;;;;;28.00;13.55;;;;;;;4.24;60.00;101073.75;5031696;28;20586;-61
2021/10/11 04:18:25;;;;;;;31.70;13.98;;;;;;;4.28;59.45;101059.47;5030093;28;20040;-57
2021/10/11 04:20:51;;;;;;;27.90;14.02;;;;;;;4.32;59.42;101061.09;5031306;28;20465;-60
2021/10/11 04:23:16;;;;;;;29.08;13.70;;;;;;;4.42;58.79;101064.28;5031111;28;20025;-61
2021/10/11 04:25:42;;;;;;;29.35;14.40;;;;;;;4.47;58.90;101059.72;5030686;28;20545;-61
2021/10/11 04:28:09;;;;;;;31.42;13.63;;;;;;;4.55;58.72;101062.97;5030651;28;20504;-58
2021/10/11 04:30:35;;;;;;;27.75;13.50;;;;;;;4.47;58.56;101038.50;5031113;28;20103;-60
2021/10/11 04:33:00;;;;;;;24.73;13.95;;;;;;;4.71;58.64;101059.78;5031268;28;20469;-60
2021/10/11 04:35:27;;;;;;;27.67;13.55;;;;;;;4.82;58.40;101062.00;5031340;28;20532;-60
2021/10/11 04:37:52;;;;;;;29.70;14.07;;;;;;;5.50;56.64;101061.25;5032066;28;20033;-61
2021/10/11 04:40:19;;;;;;;31.55;14.02;;;;;;;6.97;52.81;101059.50;5031062;28;20025;-61
2021/10/11 04:42:45;;;;;;;34.83;17.70;;;;;;;8.43;48.39;101045.31;5030862;28;20075;-59
2021/10/11 04:45:11;;;;;;;35.58;15.15;;;;;;;9.44;46.00;101042.63;5030351;28;20037;-61
2021/10/11 04:47:37;;;;;;;31.25;13.68;;;;;;;10.16;43.60;101047.44;5030772;28;20064;-61
2021/10/11 04:50:04;;;;;;;29.45;14.20;;;;;;;10.59;42.62;101044.00;5031007;28;20076;-61
2021/10/11 04:52:29;;;;;;;27.30;14.23;;;;;;;11.11;41.33;101051.59;5029537;28;20153;-61
2021/10/11 04:54:55;;;;;;;28.92;14.45;;;;;;;11.60;40.03;101051.09;5033009;28;20045;-61
2021/10/11 04:57:21;;;;;;;34.90;15.30;;;;;;;12.15;38.53;101045.72;5050080;28;20029;-61
2021/10/11 04:59:46;;;;;;;31.40;14.05;;;;;;;13.57;35.99;101034.03;5050533;28;20029;-62
2021/10/11 05:02:11;;;;;;;37.60;15.45;;;;;;;15.53;32.43;101036.94;5050276;28;20052;-61
2021/10/11 05:04:37;;;;;;;27.10;14.90;;;;;;;17.19;29.61;101034.53;5048733;28;20487;-62
2021/10/11 05:07:03;;;;;;;30.13;14.13;;;;;;;18.50;27.26;101022.66;5050299;28;20117;-61
2021/10/11 05:09:28;;;;;;;33.22;15.85;;;;;;;19.63;25.35;101028.00;5049832;28;20074;-62
2021/10/11 05:11:54;;;;;;;31.27;15.45;;;;;;;20.62;23.79;101030.72;5032398;28;20098;-62
2021/10/11 05:14:19;;;;;;;34.65;15.95;;;;;;;21.52;22.65;101028.59;5050145;28;20040;-64
2021/10/11 05:16:45;;;;;;;30.38;15.85;;;;;;;22.54;21.19;101032.06;5050127;28;20627;-62
2021/10/11 05:19:11;;;;;;;35.95;15.60;;;;;;;23.59;19.73;101036.47;5049986;28;20032;-62
2021/10/11 05:21:37;;;;;;;36.38;16.13;;;;;;;24.41;19.15;101028.69;5050108;28;20393;-61
2021/10/11 05:24:03;;;;;;;31.95;17.00;;;;;;;25.23;17.87;101031.53;5050751;28;20036;-62
2021/10/11 05:26:31;;;;;;;31.60;16.27;;;;;;;26.10;16.97;101026.16;5049343;28;20052;-62
2021/10/11 05:28:57;;;;;;;31.45;15.32;;;;;;;26.96;15.57;101037.19;5050644;28;20079;-61
2021/10/11 05:31:23;;;;;;;28.13;14.98;;;;;;;27.50;14.93;101036.34;5049853;28;20488;-62
2021/10/11 05:33:48;;;;;;;32.70;15.07;;;;;;;28.26;14.40;101028.03;5045715;28;20033;-62
2021/10/11 05:36:14;;;;;;;27.67;14.82;;;;;;;28.84;13.42;101015.47;5050420;28;20037;-63
2021/10/11 05:38:39;;;;;;;23.45;13.95;;;;;;;29.54;12.72;101018.56;5049706;28;20032;-62
2021/10/11 05:41:05;;;;;;;25.02;15.23;;;;;;;30.13;12.19;101019.22;5049318;28;20044;-62
2021/10/11 05:43:30;;;;;;;24.75;13.38;;;;;;;30.76;11.97;101017.38;5048963;28;20033;-63
2021/10/11 05:45:56;;;;;;;18.88;12.60;;;;;;;31.21;11.14;101029.22;5050020;28;20033;-61
2021/10/11 05:48:21;;;;;;;20.75;12.68;;;;;;;31.64;10.40;101022.66;5049268;28;20487;-62
2021/10/11 05:50:47;;;;;;;19.08;12.38;;;;;;;32.07;10.55;101028.19;5032076;28;20030;-62
2021/10/11 05:53:12;;;;;;;20.90;12.95;;;;;;;32.68;9.72;101021.63;5029962;28;20041;-62
2021/10/11 05:55:38;;;;;;;19.63;12.32;;;;;;;33.15;9.57;101026.25;5052016;28;20079;-60
2021/10/11 05:58:03;;;;;;;16.67;11.70;;;;;;;33.49;9.29;101018.03;5054607;28;20393;-62
2021/10/11 06:00:29;;;;;;;19.60;12.20;;;;;;;34.00;8.87;101018.16;5053842;28;20059;-62
2021/10/11 06:02:54;;;;;;;17.90;11.15;;;;;;;34.52;8.26;101013.41;5053478;28;20119;-61
2021/10/11 06:05:20;;;;;;;14.50;11.20;;;;;;;34.93;8.59;101018.69;5053912;28;20039;-61
2021/10/11 06:07:45;;;;;;;18.73;11.40;;;;;;;35.22;7.91;100999.03;5054100;28;20029;-62
2021/10/11 06:10:11;;;;;;;15.98;11.35;;;;;;;35.62;7.51;101006.13;5053300;28;20048;-62
2021/10/11 06:12:36;;;;;;;18.30;11.43;;;;;;;36.04;7.60;101010.13;5053811;28;20045;-62
2021/10/11 06:15:02;;;;;;;16.52;10.65;;;;;;;36.37;7.02;101012.88;5052448;28;20545;-62
2021/10/11 06:17:29;;;;;;;13.82;10.05;;;;;;;36.73;6.76;101001.09;5053032;28;20031;-61
2021/10/11 06:19:55;;;;;;;15.75;10.98;;;;;;;37.08;6.68;101001.56;5053243;28;20037;-61
2021/10/11 06:22:20;;;;;;;14.45;11.35;;;;;;;37.17;6.83;100997.13;5049627;28;20526;-62
2021/10/11 06:24:46;;;;;;;18.75;10.73;;;;;;;37.31;6.64;100994.66;5043526;28;20060;-62
2021/10/11 06:27:11;;;;;;;16.23;11.32;;;;;;;37.75;6.07;100993.31;5041733;28;20029;-63
2021/10/11 06:29:37;;;;;;;16.38;11.38;;;;;;;37.94;6.52;100998.34;5041168;28;20463;-61
2021/10/11 06:32:03;;;;;;;21.45;12.50;;;;;;;37.87;6.47;101004.22;5042032;28;20021;-61
2021/10/11 06:34:28;;;;;;;21.35;11.82;;;;;;;37.90;6.36;100993.34;5040553;28;20466;-62
2021/10/11 06:36:54;;;;;;;19.40;11.82;;;;;;;38.22;6.02;100994.13;5042241;28;20071;-60
2021/10/11 06:39:19;;;;;;;19.13;12.68;;;;;;;38.65;5.68;100991.00;5043286;28;20037;-61
2021/10/11 06:41:45;;;;;;;23.63;12.02;;;;;;;38.76;5.66;100975.81;5040096;28;20033;-62
2021/10/11 06:44:10;;;;;;;22.15;12.63;;;;;;;38.59;5.77;100983.75;5038526;28;20043;-63
2021/10/11 06:46:36;;;;;;;25.50;12.40;;;;;;;38.13;5.95;100985.50;5041876;28;20108;-62
2021/10/11 06:49:01;;;;;;;23.58;13.20;;;;;;;38.12;6.32;100960.63;5036369;28;20060;-63
2021/10/11 06:51:27;;;;;;;18.48;12.55;;;;;;;38.77;5.60;100962.69;5031338;28;20034;-63
2021/10/11 06:53:52;;;;;;;24.65;13.20;;;;;;;39.15;5.60;100976.22;5033011;28;20033;-62
2021/10/11 06:56:18;;;;;;;22.17;12.77;;;;;;;39.31;5.17;100969.41;5033063;28;20051;-60
2021/10/11 06:58:44;;;;;;;18.80;12.95;;;;;;;39.69;5.33;100977.28;5033380;28;20414;-61
2021/10/11 07:01:09;;;;;;;16.60;12.82;;;;;;;40.01;5.08;100961.00;5033076;28;20036;-62
2021/10/11 07:03:37;;;;;;;22.58;13.02;;;;;;;40.04;5.09;100963.25;5034391;28;20496;-69
2021/10/11 07:06:06;;;;;;;16.35;12.60;;;;;;;39.66;5.34;100965.78;5031907;28;20124;-68
2021/10/11 07:08:32;;;;;;;26.75;14.23;;;;;;;38.75;5.44;100951.75;5031638;28;20032;-69
2021/10/11 07:10:59;;;;;;;25.38;14.02;;;;;;;38.20;5.58;100963.69;5032740;28;20055;-69
2021/10/11 07:13:25;;;;;;;24.20;13.73;;;;;;;38.05;5.92;100963.69;5033015;28;20122;-69
2021/10/11 07:15:51;;;;;;;24.30;15.18;;;;;;;37.98;6.10;100955.63;5036148;28;20040;-66
2021/10/11 07:18:17;;;;;;;32.38;14.23;;;;;;;37.94;6.57;100948.88;5025951;28;20386;-67
2021/10/11 07:20:44;;;;;;;20.95;13.85;;;;;;;37.83;6.33;100952.81;5042798;28;20029;-63
2021/10/11 07:23:11;;;;;;;23.25;14.30;;;;;;;37.82;6.48;100951.97;5038269;28;20025;-64
2021/10/11 07:25:36;;;;;;;29.90;14.80;;;;;;;37.48;6.22;100938.53;5032035;28;20029;-66
2021/10/11 07:28:02;;;;;;;21.60;14.45;;;;;;;37.20;6.56;100940.75;5033814;28;20039;-63
2021/10/11 07:30:29;;;;;;;22.73;13.63;;;;;;;36.59;6.92;100943.03;5035317;28;20385;-65
2021/10/11 07:32:54;;;;;;;20.17;13.35;;;;;;;35.48;7.17;100918.56;5014716;28;20397;-65
2021/10/11 07:35:20;;;;;;;24.85;13.95;;;;;;;33.98;8.29;100933.38;5031861;28;20523;-63
2021/10/11 07:37:45;;;;;;;21.58;13.05;;;;;;;31.41;9.75;100940.41;5032290;28;20029;-63
2021/10/11 07:40:11;;;;;;;23.20;13.88;;;;;;;28.72;11.72;100948.25;5032446;28;20397;-63
2021/10/11 07:42:37;;;;;;;28.20;14.43;;;;;;;26.31;13.92;100939.38;5031269;28;20405;-63
2021/10/11 07:45:03;;;;;;;25.55;14.65;;;;;;;24.39;15.88;100954.13;5032505;28;20044;-63
2021/10/11 07:47:29;;;;;;;27.17;14.75;;;;;;;22.83;17.41;100943.25;5031750;28;20083;-63
2021/10/11 07:49:55;;;;;;;31.50;14.30;;;;;;;21.42;18.84;100908.00;5031716;28;20029;-63
2021/10/11 07:52:20;;;;;;;32.15;15.75;;;;;;;20.50;20.33;100932.22;5032484;28;20428;-63
2021/10/11 07:54:46;;;;;;;25.63;15.88;;;;;;;19.63;21.11;100929.34;5032095;28;20037;-63
2021/10/11 07:57:11;;;;;;;28.92;15.07;;;;;;;18.95;22.78;100926.09;5030892;28;20041;-66
2021/10/11 07:59:37;;;;;;;32.40;14.93;;;;;;;18.51;23.64;100926.75;5030338;28;20025;-63
2021/10/11 08:02:02;;;;;;;27.30;15.02;;;;;;;18.11;24.02;100923.31;5031877;28;20413;-64
2021/10/11 08:04:28;;;;;;;28.30;16.45;;;;;;;17.84;24.54;100924.03;5030554;28;20072;-64
2021/10/11 08:06:53;;;;;;;24.13;15.13;;;;;;;17.48;24.84;100911.06;5031998;28;20041;-65
2021/10/11 08:09:19;;;;;;;26.80;14.90;;;;;;;17.29;24.88;100911.94;5031171;28;20393;-65
2021/10/11 08:11:46;;;;;;;32.90;14.32;;;;;;;17.14;24.71;100914.19;5030261;28;20453;-69
2021/10/11 08:14:12;;;;;;;28.55;14.23;;;;;;;16.94;25.15;100922.25;5030524;28;20375;-64
2021/10/11 08:16:40;;;;;;;23.05;13.48;;;;;;;16.79;25.16;100922.63;5030324;28;20025;-63
2021/10/11 08:19:05;;;;;;;22.17;13.25;;;;;;;16.62;25.14;100913.31;5029359;28;20036;-64
2021/10/11 08:21:31;;;;;;;26.30;14.13;;;;;;;16.25;25.12;100888.69;5030555;28;20029;-65
2021/10/11 08:23:57;;;;;;;24.30;12.32;;;;;;;16.19;25.54;100903.59;5029203;28;20079;-66
2021/10/11 08:26:23;;;;;;;25.52;12.75;;;;;;;16.12;25.68;100905.97;5030307;28;20038;-70
2021/10/11 08:28:50;;;;;;;23.40;13.15;;;;;;;15.92;25.84;100873.47;5012729;28;20036;-67
2021/10/11 08:31:15;;;;;;;20.63;12.32;;;;;;;16.03;25.45;100906.78;5029127;28;20038;-68
2021/10/11 08:33:41;;;;;;;18.67;11.70;;;;;;;15.97;25.22;100905.44;5028948;28;20064;-64
2021/10/11 08:36:06;;;;;;;18.38;11.30;;;;;;;15.89;25.22;100898.00;5015823;28;20119;-67
2021/10/11 08:38:32;;;;;;;14.20;10.98;;;;;;;15.78;25.52;100909.69;5038382;28;20040;-68
2021/10/11 08:40:58;;;;;;;17.08;10.35;;;;;;;15.63;26.47;100902.91;5017307;28;20022;-68
2021/10/11 08:43:23;;;;;;;20.23;9.55;;;;;;;15.58;25.64;100903.31;5035342;28;20433;-65
2021/10/11 08:45:51;;;;;;;13.77;8.98;;;;;;;15.57;26.13;100892.66;5027956;28;20025;-65
2021/10/11 08:48:16;;;;;;;17.45;9.50;;;;;;;15.61;26.21;100892.25;5030264;28;20084;-66
2021/10/11 08:50:42;;;;;;;13.13;8.25;;;;;;;15.58;26.02;100891.66;5028377;28;20484;-67
2021/10/11 08:53:09;;;;;;;15.02;8.68;;;;;;;15.69;25.77;100901.56;5039073;28;20017;-64
2021/10/11 08:55:35;;;;;;;17.17;9.65;;;;;;;15.42;26.85;100857.00;5035458;28;20123;-64
2021/10/11 08:58:04;;;;;;;19.73;9.93;;;;;;;15.73;26.00;100892.19;5028843;28;20112;-65
2021/10/11 09:00:35;;;;;;;17.27;7.85;;;;;;;15.74;25.11;100878.53;5049616;28;20091;-65
2021/10/11 09:03:01;;;;;;;12.63;7.80;;;;;;;15.62;25.42;100885.84;5045791;28;20422;-65
2021/10/11 09:05:36;;;;;;;12.15;7.30;;;;;;;15.58;26.14;100875.47;5028838;28;20103;-63
2021/10/11 09:08:08;;;;;;;14.43;7.88;;;;;;;15.64;25.44;100878.47;5029651;28;20104;-65
2021/10/11 09:11:00;;;;;;;14.38;7.32;;;;;;;15.61;25.36;100881.44;5029339;28;20215;-66
2021/10/11 09:13:39;;;;;;;15.20;7.65;;;;;;;15.50;25.51;100886.91;5012358;28;20831;-65
2021/10/11 09:16:13;;;;;;;12.73;7.60;;;;;;;15.46;25.65;100880.91;5029814;28;20048;-66
2021/10/11 09:18:41;;;;;;;13.05;7.63;;;;;;;15.35;26.62;100879.13;5038954;28;20139;-66
2021/10/11 09:21:07;;;;;;;17.45;7.93;;;;;;;15.20;26.70;100842.66;5029104;28;20033;-65
2021/10/11 09:23:33;;;;;;;10.10;6.82;;;;;;;15.41;25.85;100868.78;5042972;28;20028;-66
2021/10/11 09:26:01;;;;;;;12.05;6.38;;;;;;;15.43;25.82;100872.22;5039920;28;20508;-66
2021/10/11 09:28:27;;;;;;;9.90;6.05;;;;;;;15.12;25.95;100831.63;5037134;28;20041;-65
2021/10/11 09:30:54;;;;;;;12.52;6.78;;;;;;;15.23;26.04;100863.97;5034636;28;20025;-67
2021/10/11 09:33:25;;;;;;;12.75;7.18;;;;;;;15.23;26.52;100858.59;5035104;28;20049;-68
2021/10/11 09:35:52;;;;;;;15.63;6.88;;;;;;;15.28;27.61;100861.75;5035517;28;20389;-67
2021/10/11 09:38:22;;;;;;;16.85;7.47;;;;;;;15.33;26.44;100861.38;5039797;28;20032;-67
2021/10/11 09:40:49;;;;;;;15.57;6.57;;;;;;;15.23;25.92;100863.09;5047358;28;20036;-67
2021/10/11 09:43:17;;;;;;;12.00;6.53;;;;;;;15.26;26.33;100852.06;5041589;28;20579;-66
2021/10/11 09:45:44;;;;;;;11.27;7.28;;;;;;;15.03;26.82;100815.25;5035235;28;20037;-66
2021/10/11 09:48:10;;;;;;;8.52;6.28;;;;;;;15.01;26.06;100817.22;5036820;28;20029;-66
2021/10/11 09:50:36;;;;;;;12.10;5.80;;;;;;;15.14;26.48;100838.63;5035140;28;20462;-65
2021/10/11 09:53:06;;;;;;;9.45;6.93;;;;;;;15.24;25.94;100849.50;5035042;28;20026;-65
2021/10/11 09:55:37;;;;;;;10.77;5.88;;;;;;;15.19;25.61;100841.78;5035607;28;20359;-68
2021/10/11 09:58:02;;;;;;;14.10;5.53;;;;;;;15.10;25.36;100826.38;5035850;28;20059;-67
2021/10/11 10:00:28;;;;;;;9.15;5.88;;;;;;;15.14;25.72;100826.97;5036458;28;20381;-67
2021/10/11 10:02:55;;;;;;;10.18;6.00;;;;;;;15.03;25.61;100804.47;5043166;28;20029;-66
2021/10/11 10:05:27;;;;;;;11.73;5.90;;;;;;;15.25;25.48;100835.03;5055015;28;20059;-65
2021/10/11 10:07:55;;;;;;;14.75;6.78;;;;;;;15.18;25.64;100826.59;5052693;28;20037;-65
2021/10/11 10:10:23;;;;;;;10.93;6.68;;;;;;;15.19;25.78;100830.13;5043491;28;20045;-66
2021/10/11 10:12:51;;;;;;;12.52;6.30;;;;;;;15.14;25.91;100817.03;5045046;28;20116;-65
2021/10/11 10:15:36;;;;;;;9.45;6.28;;;;;;;15.13;25.54;100809.94;5046892;28;20050;-63
2021/10/11 10:18:13;;;;;;;14.50;8.02;;;;;;;15.16;25.71;100819.59;5047120;28;20045;-64
2021/10/11 10:20:57;;;;;;;12.48;7.05;;;;;;;14.92;26.02;100785.63;5046351;28;20409;-66
2021/10/11 10:23:27;;;;;;;11.75;6.57;;;;;;;14.90;26.56;100817.25;5047043;28;20401;-64
2021/10/11 10:25:53;;;;;;;8.30;6.38;;;;;;;14.77;26.55;100814.72;5045639;28;20112;-63
2021/10/11 10:28:19;;;;;;;13.02;7.20;;;;;;;14.71;26.94;100799.94;5050989;28;20032;-66
2021/10/11 10:30:57;;;;;;;13.07;7.18;;;;;;;14.86;26.35;100813.09;5055264;28;20025;-65
2021/10/11 10:33:33;;;;;;;12.35;6.72;;;;;;;14.82;26.50;100809.78;5056352;28;20021;-64
2021/10/11 10:35:58;;;;;;;10.13;6.15;;;;;;;14.64;26.81;100794.16;5056021;28;20369;-64
2021/10/11 10:38:25;;;;;;;10.27;6.15;;;;;;;14.63;26.68;100786.19;5056856;28;20048;-62
2021/10/11 10:40:51;;;;;;;9.65;6.57;;;;;;;14.62;26.98;100789.84;5055310;28;20084;-66
2021/10/11 10:43:18;;;;;;;11.32;6.97;;;;;;;14.69;26.74;100793.75;5052534;28;20044;-64
2021/10/11 10:45:44;;;;;;;9.70;6.63;;;;;;;14.69;26.65;100796.44;5052420;28;20025;-65
2021/10/11 10:48:24;;;;;;;10.70;6.13;;;;;;;14.78;26.82;100790.34;5051390;28;20025;-66
2021/10/11 10:50:56;;;;;;;11.68;6.80;;;;;;;14.71;26.53;100783.75;5042231;28;20119;-65
2021/10/11 10:53:23;;;;;;;9.80;6.70;;;;;;;14.70;26.96;100781.13;5041959;28;20424;-64
2021/10/11 10:55:49;;;;;;;14.35;7.22;;;;;;;14.69;26.96;100768.66;5040861;28;20063;-62
2021/10/11 10:58:16;;;;;;;13.32;7.57;;;;;;;14.63;27.48;100759.22;5042382;28;20380;-64
2021/10/11 11:00:43;;;;;;;11.70;7.82;;;;;;;14.72;27.53;100769.28;5042079;28;20044;-64
2021/10/11 11:03:13;;;;;;;13.98;7.72;;;;;;;14.75;27.34;100763.63;5040867;28;20044;-63
2021/10/11 11:05:41;;;;;;;12.50;7.05;;;;;;;14.73;27.04;100762.91;5042371;28;20120;-65
2021/10/11 11:08:08;;;;;;;11.30;7.07;;;;;;;14.71;26.67;100759.50;5041892;28;20026;-64
2021/10/11 11:10:36;;;;;;;9.50;6.95;;;;;;;14.76;26.63;100759.09;5040370;28;20445;-64
2021/10/11 11:13:06;;;;;;;12.57;6.65;;;;;;;14.78;26.80;100747.22;5042198;28;20056;-65
2021/10/11 11:15:40;;;;;;;13.57;7.35;;;;;;;14.75;26.97;100755.56;5042597;28;20388;-64